Atkins, South Carolina
Current Conditions -  °F | °C
As of 6:15 AM on Monday 22 Dec 2014 (Local Time) from KSMS Reporting Station
Overcast Overcast  
Wind Chill: 40°   Ceiling: 900
Heat Index: 45°   Visibility: 10mi
Dew Point: 43°   Wind: 8mph
Humidity: 93%   Direction: 20°NNE
Pressure: 30.1"   Gusts: NA
Location:  34.0395°N, 80.1095°W
Report Text: KSMS 221115Z AUTO 02007KT 10SM OVC009 07/06 A3010 RMK AO2
Loading
Personal Weather Stations






























Interactive Weather Map New forecast layout! Learn more

10-Day Weather Forecast

Advertisements
Track Severe Weather on mobile